createdAt,value
2024-02-07T00:01:51.498Z,33.80
2024-02-07T00:04:18.135Z,34.80
2024-02-07T00:06:44.774Z,35.40
2024-02-07T00:09:11.287Z,34.70
2024-02-07T00:11:37.840Z,35.10
2024-02-07T00:14:04.337Z,34.90
2024-02-07T00:16:30.960Z,34.90
2024-02-07T00:18:57.582Z,35.30
2024-02-07T00:21:24.231Z,35.30
2024-02-07T00:23:50.768Z,35.10
2024-02-07T00:26:17.303Z,34.50
2024-02-07T00:28:43.881Z,34.80
2024-02-07T00:31:10.426Z,34.90
2024-02-07T00:33:36.924Z,35.00
2024-02-07T00:36:03.463Z,34.90
2024-02-07T00:40:57.093Z,34.40
2024-02-07T00:43:23.668Z,35.60
2024-02-07T00:53:13.512Z,34.80
2024-02-07T00:55:40.126Z,34.90
2024-02-07T01:00:33.805Z,34.60
2024-02-07T01:05:27.360Z,35.10
2024-02-07T01:07:53.964Z,34.90
2024-02-07T01:12:47.621Z,34.50
2024-02-07T01:15:14.165Z,35.40
2024-02-07T01:17:40.736Z,35.30
2024-02-07T01:20:07.359Z,35.40
2024-02-07T01:22:33.970Z,35.20
2024-02-07T01:25:00.512Z,35.10
2024-02-07T01:27:27.072Z,35.20
2024-02-07T01:29:53.600Z,35.30
2024-02-07T01:32:20.103Z,35.20
2024-02-07T01:34:46.686Z,35.20
2024-02-07T01:37:13.287Z,34.80
2024-02-07T01:39:39.807Z,35.00
2024-02-07T01:42:06.338Z,34.80
2024-02-07T01:46:59.943Z,34.90
2024-02-07T01:49:26.523Z,35.00
2024-02-07T01:51:53.045Z,34.70
2024-02-07T01:54:19.620Z,35.20
2024-02-07T01:56:46.097Z,34.60
2024-02-07T01:59:12.627Z,34.80
2024-02-07T02:04:06.447Z,34.90
2024-02-07T02:06:33.132Z,34.80
2024-02-07T02:08:59.731Z,34.70
2024-02-07T02:11:26.253Z,34.90
2024-02-07T02:13:52.846Z,35.00
2024-02-07T02:18:46.464Z,34.40
2024-02-07T02:21:12.935Z,34.60
2024-02-07T02:23:39.454Z,35.00
2024-02-07T02:26:05.983Z,35.20
2024-02-07T02:28:32.584Z,34.90
2024-02-07T02:30:59.224Z,34.80
2024-02-07T02:35:52.865Z,35.00
2024-02-07T02:38:19.360Z,35.20
2024-02-07T02:43:13.036Z,34.80
2024-02-07T02:45:39.579Z,34.90
2024-02-07T02:48:06.189Z,34.70
2024-02-07T02:50:32.742Z,35.20
2024-02-07T02:52:59.299Z,35.00
2024-02-07T02:55:25.824Z,34.70
2024-02-07T02:57:52.372Z,34.60
2024-02-07T03:00:18.873Z,35.20
2024-02-07T03:02:45.408Z,34.90
2024-02-07T03:05:13.951Z,34.90
2024-02-07T03:07:40.573Z,34.70
2024-02-07T03:10:07.142Z,35.20
2024-02-07T03:12:33.654Z,35.00
2024-02-07T03:17:27.355Z,34.80
2024-02-07T03:19:54.030Z,34.70
2024-02-07T03:22:20.677Z,34.20
2024-02-07T03:24:47.403Z,34.40
2024-02-07T03:27:13.918Z,34.90
2024-02-07T03:29:40.478Z,34.80
2024-02-07T03:32:07.057Z,34.80
2024-02-07T03:34:33.658Z,35.10
2024-02-07T03:37:00.259Z,34.90
2024-02-07T03:39:26.735Z,35.20
2024-02-07T03:41:53.244Z,35.30
2024-02-07T03:44:19.750Z,34.70
2024-02-07T03:49:13.457Z,34.80
2024-02-07T03:51:39.999Z,34.80
2024-02-07T03:56:33.539Z,34.80
2024-02-07T03:59:00.252Z,34.60
2024-02-07T04:03:53.950Z,34.60
2024-02-07T04:06:20.656Z,34.90
2024-02-07T04:08:47.510Z,34.40
2024-02-07T04:11:14.228Z,34.40
2024-02-07T04:13:40.804Z,34.90
2024-02-07T04:16:07.341Z,34.40
2024-02-07T04:21:01.016Z,34.90
2024-02-07T04:23:27.564Z,34.60
2024-02-07T04:25:54.136Z,34.90
2024-02-07T04:28:20.707Z,34.60
2024-02-07T04:30:47.256Z,34.90
2024-02-07T04:33:13.948Z,34.70
2024-02-07T04:35:40.666Z,34.90
2024-02-07T04:40:34.317Z,34.90
2024-02-07T04:43:00.850Z,34.70
2024-02-07T04:45:27.356Z,35.10
2024-02-07T04:47:53.867Z,35.10
2024-02-07T04:50:20.443Z,35.00
2024-02-07T04:52:47.032Z,35.10
2024-02-07T04:55:13.582Z,35.10
2024-02-07T04:57:40.124Z,35.00
2024-02-07T05:00:06.629Z,34.20
2024-02-07T05:05:00.350Z,35.10
2024-02-07T05:07:27.047Z,35.00
2024-02-07T05:09:53.571Z,34.90
2024-02-07T05:12:20.090Z,35.40
2024-02-07T05:14:46.641Z,35.20
2024-02-07T05:17:13.150Z,35.30
2024-02-07T05:22:06.815Z,35.60
2024-02-07T05:24:33.346Z,34.90
2024-02-07T05:29:26.878Z,34.90
2024-02-07T05:31:55.550Z,35.30
2024-02-07T05:34:22.769Z,35.00
2024-02-07T05:36:49.368Z,35.10
2024-02-07T05:41:42.914Z,34.90
2024-02-07T05:44:09.447Z,34.80
2024-02-07T05:46:35.966Z,34.90
2024-02-07T05:49:02.530Z,35.50
2024-02-07T05:51:29.090Z,35.00
2024-02-07T05:53:55.631Z,35.20
2024-02-07T05:56:22.159Z,35.40
2024-02-07T05:58:48.727Z,35.20
2024-02-07T06:01:15.445Z,35.80
2024-02-07T06:03:42.034Z,35.50
2024-02-07T06:06:08.575Z,35.30
2024-02-07T06:08:35.160Z,34.50
2024-02-07T06:11:01.816Z,35.20
2024-02-07T06:15:55.477Z,35.30
2024-02-07T06:18:22.018Z,35.80
2024-02-07T06:20:48.696Z,35.40
2024-02-07T06:23:15.306Z,35.10
2024-02-07T06:25:41.900Z,35.60
2024-02-07T06:33:02.725Z,34.70
2024-02-07T06:35:29.388Z,35.40
2024-02-07T06:37:55.972Z,35.60
2024-02-07T06:42:49.621Z,35.50
2024-02-07T06:45:16.111Z,35.40
2024-02-07T06:47:42.712Z,35.50
2024-02-07T06:50:09.311Z,35.50
2024-02-07T06:52:35.888Z,35.30
2024-02-07T06:55:02.449Z,35.60
2024-02-07T06:57:28.993Z,36.00
2024-02-07T06:59:55.522Z,34.50
2024-02-07T07:02:22.166Z,35.80
2024-02-07T07:07:15.843Z,35.40
2024-02-07T07:09:42.378Z,35.70
2024-02-07T07:12:08.932Z,35.00
2024-02-07T07:14:35.423Z,35.50
2024-02-07T07:17:01.992Z,35.20
2024-02-07T07:19:28.626Z,35.10
2024-02-07T07:21:55.198Z,35.50
2024-02-07T07:24:21.751Z,35.80
2024-02-07T07:26:48.235Z,35.70
2024-02-07T07:29:14.751Z,35.70
2024-02-07T07:34:08.431Z,35.80
2024-02-07T07:36:35.019Z,35.60
2024-02-07T07:41:29.051Z,35.20
2024-02-07T07:43:56.289Z,35.20
2024-02-07T07:46:22.969Z,35.40
2024-02-07T07:51:16.705Z,35.40
2024-02-07T07:53:43.224Z,35.70
2024-02-07T07:58:44.455Z,35.10
2024-02-07T08:03:42.910Z,35.60
2024-02-07T08:06:09.445Z,35.40
2024-02-07T08:08:36.080Z,35.80
2024-02-07T08:11:02.723Z,35.40
2024-02-07T08:13:29.322Z,35.60
2024-02-07T08:18:23.035Z,34.80
2024-02-07T08:20:49.577Z,35.70
2024-02-07T08:23:16.128Z,34.60
2024-02-07T08:25:42.745Z,35.50
2024-02-07T08:28:09.238Z,35.90
2024-02-07T08:33:02.904Z,36.00
2024-02-07T08:35:29.740Z,35.80
2024-02-07T08:37:56.471Z,35.60
2024-02-07T08:40:23.047Z,35.70
2024-02-07T08:42:49.549Z,35.60
2024-02-07T08:45:16.063Z,34.70
2024-02-07T08:47:42.795Z,35.60
2024-02-07T08:50:09.521Z,34.30
2024-02-07T08:52:36.134Z,35.70
2024-02-07T08:55:02.739Z,35.50
2024-02-07T08:57:29.283Z,35.60
2024-02-07T08:59:55.846Z,35.80
2024-02-07T09:04:49.578Z,35.60
2024-02-07T09:07:18.466Z,35.80
2024-02-07T09:09:46.842Z,36.20
2024-02-07T09:12:13.390Z,35.50
2024-02-07T09:14:39.967Z,35.90
2024-02-07T09:17:06.505Z,34.50
2024-02-07T09:19:33.173Z,35.40
2024-02-07T09:22:00.069Z,35.40
2024-02-07T09:26:53.731Z,34.40
2024-02-07T09:29:20.263Z,35.30
2024-02-07T09:34:13.911Z,35.40
2024-02-07T09:36:40.610Z,35.60
2024-02-07T09:39:07.206Z,35.80
2024-02-07T09:41:33.778Z,35.60
2024-02-07T09:44:00.474Z,35.40
2024-02-07T09:46:27.748Z,36.00
2024-02-07T09:48:54.532Z,35.50
2024-02-07T09:51:21.153Z,35.80
2024-02-07T09:53:47.690Z,35.80
2024-02-07T09:56:14.331Z,36.00
2024-02-07T09:58:40.958Z,35.50
2024-02-07T10:01:07.507Z,35.50
2024-02-07T10:03:34.065Z,34.50
2024-02-07T10:06:00.705Z,35.60
2024-02-07T10:08:27.324Z,35.60
2024-02-07T10:10:53.997Z,35.60
2024-02-07T10:13:20.591Z,36.10
2024-02-07T10:18:14.355Z,35.80
2024-02-07T10:20:40.939Z,35.80
2024-02-07T10:23:07.502Z,36.10
2024-02-07T10:25:34.148Z,35.60
2024-02-07T10:28:00.683Z,35.80
2024-02-07T10:30:27.227Z,35.70
2024-02-07T10:35:20.978Z,35.20
2024-02-07T10:40:14.962Z,35.90
2024-02-07T10:42:41.668Z,35.80
2024-02-07T10:45:08.263Z,35.10
2024-02-07T10:47:34.964Z,35.40
2024-02-07T10:52:28.922Z,35.80
2024-02-07T10:54:55.470Z,35.80
2024-02-07T10:59:49.062Z,36.40
2024-02-07T11:02:15.612Z,36.40
2024-02-07T11:07:09.507Z,36.20
2024-02-07T11:12:03.116Z,36.10
2024-02-07T11:14:29.655Z,36.10
2024-02-07T11:16:56.251Z,36.00
2024-02-07T11:19:22.970Z,36.30
2024-02-07T11:21:49.564Z,36.80
2024-02-07T11:26:43.162Z,36.40
2024-02-07T11:29:09.827Z,36.70
2024-02-07T11:34:03.588Z,36.40
2024-02-07T11:36:30.118Z,36.70
2024-02-07T11:41:23.800Z,36.60
2024-02-07T11:43:50.457Z,36.60
2024-02-07T11:46:17.036Z,36.90
2024-02-07T11:48:43.752Z,36.60
2024-02-07T11:51:10.337Z,36.80
2024-02-07T11:53:36.837Z,36.90
2024-02-07T11:56:03.475Z,36.60
2024-02-07T12:00:57.157Z,36.30
2024-02-07T12:03:23.666Z,36.60
2024-02-07T12:05:50.302Z,35.30
2024-02-07T12:08:17.064Z,35.20
2024-02-07T12:10:43.815Z,36.50
2024-02-07T12:13:10.436Z,36.50
2024-02-07T12:15:36.952Z,35.20
2024-02-07T12:18:03.492Z,36.50
2024-02-07T12:20:30.195Z,36.70
2024-02-07T12:22:56.931Z,36.50
2024-02-07T12:25:23.520Z,35.50
2024-02-07T12:27:50.047Z,35.80
2024-02-07T12:30:16.547Z,36.70
2024-02-07T12:32:43.231Z,36.50
2024-02-07T12:35:09.840Z,36.60
2024-02-07T12:37:36.510Z,36.50
2024-02-07T12:40:03.103Z,36.50
2024-02-07T12:42:29.616Z,36.80
2024-02-07T12:44:56.096Z,36.60
2024-02-07T12:47:22.729Z,36.40
2024-02-07T12:52:16.372Z,36.80
2024-02-07T12:54:43.009Z,36.20
2024-02-07T12:59:36.573Z,36.70
2024-02-07T13:02:03.146Z,36.80
2024-02-07T13:04:29.716Z,36.50
2024-02-07T13:06:56.249Z,36.90
2024-02-07T13:09:22.779Z,36.60
2024-02-07T13:14:18.348Z,36.20
2024-02-07T13:16:46.131Z,36.60
2024-02-07T13:19:12.720Z,36.80
2024-02-07T13:21:39.252Z,36.50
2024-02-07T13:26:32.843Z,36.50
2024-02-07T13:28:59.441Z,36.80
2024-02-07T13:31:26.048Z,35.20
2024-02-07T13:33:52.596Z,36.20
2024-02-07T13:36:19.133Z,36.90
2024-02-07T13:38:45.634Z,36.70
2024-02-07T13:41:12.205Z,37.00
2024-02-07T13:43:38.846Z,37.10
2024-02-07T13:46:05.427Z,36.50
2024-02-07T13:50:59.207Z,36.90
2024-02-07T13:53:25.731Z,36.50
2024-02-07T13:55:52.418Z,36.50
2024-02-07T13:58:19.104Z,36.40
2024-02-07T14:00:45.673Z,36.80
2024-02-07T14:03:12.213Z,36.50
2024-02-07T14:05:38.819Z,36.40
2024-02-07T14:08:05.517Z,36.80
2024-02-07T14:10:32.236Z,36.60
2024-02-07T14:12:58.838Z,36.70
2024-02-07T14:15:25.356Z,36.50
2024-02-07T14:17:51.907Z,36.40
2024-02-07T14:22:45.894Z,36.30
2024-02-07T14:27:39.485Z,35.20
2024-02-07T14:30:05.989Z,37.00
2024-02-07T14:32:32.552Z,36.40
2024-02-07T14:34:59.120Z,36.50
2024-02-07T14:37:25.729Z,36.70
2024-02-07T14:42:19.562Z,36.90
2024-02-07T14:44:46.086Z,37.30
2024-02-07T14:49:39.865Z,36.70
2024-02-07T14:52:06.487Z,37.20
2024-02-07T14:54:33.008Z,37.00
2024-02-07T14:56:59.553Z,37.20
2024-02-07T14:59:26.127Z,36.90
2024-02-07T15:01:52.697Z,36.20
2024-02-07T15:04:19.342Z,37.00
2024-02-07T15:06:46.053Z,36.70
2024-02-07T15:09:12.569Z,37.10
2024-02-07T15:14:06.212Z,36.70
2024-02-07T15:16:32.771Z,36.60
2024-02-07T15:18:59.279Z,36.70
2024-02-07T15:21:25.932Z,36.90
2024-02-07T15:23:52.471Z,37.00
2024-02-07T15:26:18.996Z,37.10
2024-02-07T15:28:45.605Z,36.90
2024-02-07T15:31:12.146Z,37.10
2024-02-07T15:33:42.131Z,37.20
2024-02-07T15:38:37.991Z,36.80
2024-02-07T15:41:04.697Z,36.80
2024-02-07T15:43:31.245Z,36.90
2024-02-07T15:45:57.781Z,37.30
2024-02-07T15:48:24.366Z,36.90
2024-02-07T15:50:50.988Z,36.80
2024-02-07T15:55:44.721Z,37.70
2024-02-07T16:00:38.423Z,37.60
2024-02-07T16:03:05.205Z,37.30
2024-02-07T16:05:31.942Z,36.10
2024-02-07T16:07:58.800Z,37.00
2024-02-07T16:12:52.506Z,37.30
2024-02-07T16:15:19.009Z,37.30
2024-02-07T16:20:12.652Z,37.30
2024-02-07T16:22:39.180Z,37.30
2024-02-07T16:25:05.740Z,37.10
2024-02-07T16:27:32.233Z,37.00
2024-02-07T16:29:58.775Z,37.30
2024-02-07T16:32:25.302Z,36.80
2024-02-07T16:34:52.022Z,37.00
2024-02-07T16:37:18.722Z,37.10
2024-02-07T16:39:45.270Z,36.70
2024-02-07T16:42:11.950Z,36.10
2024-02-07T16:44:38.446Z,37.10
2024-02-07T16:47:05.021Z,37.00
2024-02-07T16:49:32.828Z,37.00
2024-02-07T16:51:59.634Z,36.90
2024-02-07T16:54:26.112Z,36.90
2024-02-07T16:56:52.652Z,36.50
2024-02-07T16:59:19.178Z,36.60
2024-02-07T17:01:45.685Z,36.40
2024-02-07T17:06:39.360Z,37.00
2024-02-07T17:09:05.985Z,36.40
2024-02-07T17:11:32.506Z,36.70
2024-02-07T17:13:59.071Z,36.80
2024-02-07T17:16:25.690Z,36.70
2024-02-07T17:21:19.393Z,37.10
2024-02-07T17:23:45.949Z,37.20
2024-02-07T17:26:12.562Z,37.30
2024-02-07T17:28:39.410Z,36.90
2024-02-07T17:31:06.003Z,37.00
2024-02-07T17:35:59.652Z,36.60
2024-02-07T17:38:26.197Z,36.60
2024-02-07T17:40:52.909Z,36.90
2024-02-07T17:43:19.520Z,37.40
2024-02-07T17:45:46.093Z,37.10
2024-02-07T17:48:12.835Z,37.30
2024-02-07T17:50:39.457Z,37.20
2024-02-07T17:53:06.151Z,37.10
2024-02-07T17:55:32.972Z,37.10
2024-02-07T17:57:59.535Z,37.50
2024-02-07T18:00:26.114Z,37.60
2024-02-07T18:02:52.637Z,37.20
2024-02-07T18:05:19.234Z,36.80
2024-02-07T18:07:45.904Z,37.10
2024-02-07T18:10:12.656Z,36.90
2024-02-07T18:15:06.229Z,37.20
2024-02-07T18:17:32.795Z,36.90
2024-02-07T18:19:59.488Z,36.80
2024-02-07T18:22:26.176Z,37.40
2024-02-07T18:24:52.706Z,37.20
2024-02-07T18:29:46.333Z,36.90
2024-02-07T18:32:12.964Z,37.30
2024-02-07T18:34:39.776Z,37.20
2024-02-07T18:37:06.426Z,36.90
2024-02-07T18:39:32.955Z,37.20
2024-02-07T18:41:59.529Z,37.00
2024-02-07T18:44:26.126Z,36.60
2024-02-07T18:46:52.801Z,37.30
2024-02-07T18:51:46.626Z,36.50
2024-02-07T18:54:13.174Z,36.70
2024-02-07T18:56:39.714Z,37.30
2024-02-07T18:59:06.312Z,37.70
2024-02-07T19:01:32.966Z,36.90
2024-02-07T19:06:26.745Z,36.90
2024-02-07T19:08:53.285Z,37.10
2024-02-07T19:13:46.880Z,36.10
2024-02-07T19:16:13.413Z,36.80
2024-02-07T19:21:07.050Z,37.10
2024-02-07T19:23:33.608Z,36.80
2024-02-07T19:26:00.273Z,37.00
2024-02-07T19:28:26.828Z,36.80
2024-02-07T19:30:53.366Z,36.80
2024-02-07T19:35:46.942Z,37.10
2024-02-07T19:38:16.045Z,36.70
2024-02-07T19:40:44.567Z,36.80
2024-02-07T19:43:11.223Z,36.80
2024-02-07T19:45:37.778Z,36.70
2024-02-07T19:48:04.360Z,37.00
2024-02-07T19:50:31.033Z,36.90
2024-02-07T19:52:57.601Z,37.20
2024-02-07T19:55:24.174Z,36.90
2024-02-07T19:57:50.700Z,37.30
2024-02-07T20:00:17.244Z,36.70
2024-02-07T20:02:43.741Z,36.80
2024-02-07T20:05:10.480Z,36.90
2024-02-07T20:07:37.150Z,37.40
2024-02-07T20:10:04.646Z,36.90
2024-02-07T20:12:31.635Z,37.30
2024-02-07T20:14:58.119Z,37.30
2024-02-07T20:17:24.696Z,37.30
2024-02-07T20:19:51.343Z,37.30
2024-02-07T20:22:17.988Z,36.70
2024-02-07T20:24:44.547Z,36.90
2024-02-07T20:27:11.053Z,36.80
2024-02-07T20:29:37.575Z,36.80
2024-02-07T20:32:04.178Z,37.20
2024-02-07T20:36:57.912Z,37.40
2024-02-07T20:39:24.457Z,36.90
2024-02-07T20:41:50.976Z,37.00
2024-02-07T20:44:17.664Z,36.90
2024-02-07T20:46:44.384Z,36.90
2024-02-07T20:49:11.055Z,37.20
2024-02-07T20:51:37.617Z,36.70
2024-02-07T20:54:04.143Z,37.20
2024-02-07T20:56:30.632Z,37.80
2024-02-07T21:01:24.242Z,37.20
2024-02-07T21:03:50.895Z,37.20
2024-02-07T21:06:19.792Z,37.30
2024-02-07T21:08:47.222Z,37.90
2024-02-07T21:11:13.772Z,37.60
2024-02-07T21:13:40.376Z,37.20
2024-02-07T21:16:06.952Z,37.40
2024-02-07T21:21:00.495Z,37.30
2024-02-07T21:23:26.979Z,37.00
2024-02-07T21:28:20.532Z,37.30
2024-02-07T21:30:47.314Z,37.70
2024-02-07T21:33:14.149Z,37.30
2024-02-07T21:35:40.707Z,37.20
2024-02-07T21:38:09.520Z,37.20
2024-02-07T21:40:36.528Z,37.20
2024-02-07T21:43:03.096Z,36.60
2024-02-07T21:47:56.849Z,37.70
2024-02-07T21:50:23.394Z,37.10
2024-02-07T21:52:49.961Z,37.10
2024-02-07T21:55:16.443Z,37.00
2024-02-07T21:57:42.936Z,37.20
2024-02-07T22:00:09.452Z,37.20
2024-02-07T22:05:03.065Z,37.40
2024-02-07T22:07:29.649Z,37.10
2024-02-07T22:09:56.214Z,37.00
2024-02-07T22:12:22.719Z,37.40
2024-02-07T22:14:49.234Z,37.60
2024-02-07T22:17:15.736Z,37.20
2024-02-07T22:22:09.433Z,37.20
2024-02-07T22:24:35.919Z,37.10
2024-02-07T22:27:02.457Z,37.10
2024-02-07T22:29:28.971Z,37.00
2024-02-07T22:31:55.525Z,37.20
2024-02-07T22:34:22.122Z,37.40
2024-02-07T22:39:15.724Z,37.10
2024-02-07T22:41:42.276Z,36.80
2024-02-07T22:44:08.820Z,37.20
2024-02-07T22:46:35.418Z,36.90
2024-02-07T22:49:02.033Z,37.10
2024-02-07T22:53:55.630Z,37.20
2024-02-07T22:56:22.138Z,36.90
2024-02-07T22:58:48.667Z,36.90
2024-02-07T23:01:15.289Z,37.00
2024-02-07T23:03:41.876Z,36.90
2024-02-07T23:06:08.510Z,36.80
2024-02-07T23:08:35.098Z,37.00
2024-02-07T23:11:01.694Z,37.00
2024-02-07T23:13:28.319Z,37.20
2024-02-07T23:18:22.022Z,37.30
2024-02-07T23:23:15.643Z,37.00
2024-02-07T23:25:42.166Z,37.00
2024-02-07T23:28:08.687Z,37.00
2024-02-07T23:30:35.461Z,36.90
2024-02-07T23:33:02.072Z,37.00
2024-02-07T23:35:28.759Z,37.20
2024-02-07T23:37:55.330Z,36.40
2024-02-07T23:40:21.876Z,37.10
2024-02-07T23:42:48.427Z,37.10
2024-02-07T23:45:14.960Z,37.00
2024-02-07T23:47:41.628Z,37.20
2024-02-07T23:50:08.198Z,37.50
2024-02-07T23:52:34.800Z,37.20
2024-02-07T23:55:01.383Z,37.30
2024-02-07T23:57:27.903Z,37.00
2024-02-07T23:59:54.434Z,36.90
